Fairbanks, AK

7:32 PM AKDT on May 22, 2015 (GMT -0800)
19th and Kennedy | | Change Station
CLOSE
Current Station
Personal Weather Station
Location: Fairbanks, AK
Elevation: 440 ft
Nearby Weather Stations
Active Advisory: Fire Weather Warning Active Notice: Record Report

Elev 440 ft 64.83 °N, 147.80 °W | Updated 10 minutes ago

Mostly Cloudy
Mostly Cloudy
81.5 °F
Feels Like 80 °F
N
0.0
Wind Variable Wind from SSE

Today
High -- | Low -- °F
--% Chance of Precip.
Yesterday
High -- | Low -- °F
Precip. -- in
4:04 AM 11:33 PM
Waxing Crescent, 26% visible
Pressure 29.96 in
Visibility 10.0 miles
Clouds Few 12000 ft
Mostly Cloudy 16000 ft
Heat Index 80 °F
Dew Point 40 °F
Humidity 23%
Rainfall 0.00 in
Snow Depth Not available.
UV 1 out of 12
Pollen Not available.
Air Quality Not available.
Flu Activity Local Activity
METAR PAFA 230253Z 04004KT 10SM FEW120 BKN160 26/01 A2995 RMK AO2 SLP146 T02610006 58023

More Conditions Fewer Conditions

Pressure 29.96 in
Visibility 10.0 miles
Clouds Few 12000 ft
Mostly Cloudy 16000 ft
Heat Index 80 °F
Dew Point 40 °F
Humidity 23%
Rainfall 0.00 in
Snow Depth Not available.
UV 1 out of 12
Pollen Not available.
Air Quality Not available.
Flu Activity Local Activity
METAR PAFA 230253Z 04004KT 10SM FEW120 BKN160 26/01 A2995 RMK AO2 SLP146 T02610006 58023

More Conditions Fewer Conditions

10-Day Weather Forecast

Almanac

Astronomy

May. 22, 2015 Rise Set
Actual Time
Civil Twilight
Nautical Twilight
Astronomical Twilight
Moon
Length of Visible Light
Length of Day
Tomorrow will be .
, % of the Moon is Illuminated

Today's Extremes

State Highs State Lows

Community

WunderPhotos

Upload Photos

1,823,381 photos uploaded!

WunderBlogs® & News

Nearby

Air Quality

  Air Quality AQ Index Pollutant
Not available.

Snow Depth

Station Depth Elevation

Earthquake Activity

City Distance Mag. Time & Date
Minimum magnitude displayed is 2.5.

Coastal Water Temperatures

Place Temperature

Stations

Nearby Weather Stations

Station Location Temp. Windchill Dew Point Humidity Wind Precip. Elev Updated Type
                   
Fire Weather Warning
Statement as of 1:47 PM AKDT on May 22, 2015

... Red flag warning remains in effect until 10 PM akdt Saturday
for low humidity for fire weather zone 222...

* humidity... as low as 13 percent.

* Timing... relative humidity will recover above 15 percent by 10
PM akdt tonight. Relative humidity will fall below 15 percent
again Saturday Friday after 2 PM akdt.

* Impacts... any fires that develop will likely spread rapidly.
Outdoor burning is not recommended.

Precautionary/preparedness actions...

A red flag warning means that conditions are occurring or will
occur which could lead to the development of large and dangerous
fires. It is directed toward fire agencies... and through them...
to the public.

Please advise the appropriate officials or fire crews in the
field of this red flag warning.